sensor_id;sensor_type;location;lat;lon;timestamp;temperature;humidity
52669;DHT22;59898;52.786;6.892;2022-10-31T00:03:19;15.10;99.90
52669;DHT22;59898;52.786;6.892;2022-10-31T00:06:40;15.10;99.90
52669;DHT22;59898;52.786;6.892;2022-10-31T00:10:01;15.10;99.90
52669;DHT22;59898;52.786;6.892;2022-10-31T00:13:21;15.00;99.90
52669;DHT22;59898;52.786;6.892;2022-10-31T00:16:42;14.90;99.90
52669;DHT22;59898;52.786;6.892;2022-10-31T00:20:03;14.90;99.90
52669;DHT22;59898;52.786;6.892;2022-10-31T00:23:24;14.90;99.90
52669;DHT22;59898;52.786;6.892;2022-10-31T00:26:44;14.90;99.90
52669;DHT22;59898;52.786;6.892;2022-10-31T00:30:05;15.00;99.90
52669;DHT22;59898;52.786;6.892;2022-10-31T00:33:26;15.00;99.90
52669;DHT22;59898;52.786;6.892;2022-10-31T00:36:47;14.90;99.90
52669;DHT22;59898;52.786;6.892;2022-10-31T00:40:09;14.80;99.90
52669;DHT22;59898;52.786;6.892;2022-10-31T00:43:29;14.80;99.90
52669;DHT22;59898;52.786;6.892;2022-10-31T00:46:50;14.80;99.90
52669;DHT22;59898;52.786;6.892;2022-10-31T00:50:11;14.80;99.90
52669;DHT22;59898;52.786;6.892;2022-10-31T00:53:31;14.80;99.90
52669;DHT22;59898;52.786;6.892;2022-10-31T00:56:52;14.70;99.90
52669;DHT22;59898;52.786;6.892;2022-10-31T01:00:14;14.80;99.90
52669;DHT22;59898;52.786;6.892;2022-10-31T01:03:35;14.70;99.90
52669;DHT22;59898;52.786;6.892;2022-10-31T01:06:55;14.70;99.90
52669;DHT22;59898;52.786;6.892;2022-10-31T01:10:17;14.60;99.90
52669;DHT22;59898;52.786;6.892;2022-10-31T01:13:38;14.60;99.90
52669;DHT22;59898;52.786;6.892;2022-10-31T01:16:59;14.60;99.90
52669;DHT22;59898;52.786;6.892;2022-10-31T01:20:19;14.50;99.90
52669;DHT22;59898;52.786;6.892;2022-10-31T01:23:41;14.40;99.90
52669;DHT22;59898;52.786;6.892;2022-10-31T01:27:02;14.40;99.90
52669;DHT22;59898;52.786;6.892;2022-10-31T01:30:23;14.30;99.90
52669;DHT22;59898;52.786;6.892;2022-10-31T01:33:44;14.30;99.90
52669;DHT22;59898;52.786;6.892;2022-10-31T01:37:04;14.30;99.90
52669;DHT22;59898;52.786;6.892;2022-10-31T01:40:29;14.20;99.90
52669;DHT22;59898;52.786;6.892;2022-10-31T01:43:54;14.20;99.90
52669;DHT22;59898;52.786;6.892;2022-10-31T01:47:17;14.20;99.90
52669;DHT22;59898;52.786;6.892;2022-10-31T01:50:39;14.20;99.90
52669;DHT22;59898;52.786;6.892;2022-10-31T01:54:04;14.10;99.90
52669;DHT22;59898;52.786;6.892;2022-10-31T01:57:26;14.10;99.90
52669;DHT22;59898;52.786;6.892;2022-10-31T02:00:52;14.10;99.90
52669;DHT22;59898;52.786;6.892;2022-10-31T02:04:14;14.10;99.90
52669;DHT22;59898;52.786;6.892;2022-10-31T02:11:15;14.10;99.90
52669;DHT22;59898;52.786;6.892;2022-10-31T02:14:36;14.10;99.90
52669;DHT22;59898;52.786;6.892;2022-10-31T02:17:58;14.10;99.90
52669;DHT22;59898;52.786;6.892;2022-10-31T02:21:29;14.10;99.90
52669;DHT22;59898;52.786;6.892;2022-10-31T02:25:25;14.10;99.90
52669;DHT22;59898;52.786;6.892;2022-10-31T02:32:50;14.00;99.90
52669;DHT22;59898;52.786;6.892;2022-10-31T02:40:26;14.00;99.90
52669;DHT22;59898;52.786;6.892;2022-10-31T02:44:09;14.00;99.90
52669;DHT22;59898;52.786;6.892;2022-10-31T02:47:37;14.00;99.90
52669;DHT22;59898;52.786;6.892;2022-10-31T02:51:01;14.00;99.90
52669;DHT22;59898;52.786;6.892;2022-10-31T02:54:24;13.90;99.90
52669;DHT22;59898;52.786;6.892;2022-10-31T02:57:45;13.90;99.90
52669;DHT22;59898;52.786;6.892;2022-10-31T03:05:03;13.80;99.90
52669;DHT22;59898;52.786;6.892;2022-10-31T03:11:58;13.70;99.90
52669;DHT22;59898;52.786;6.892;2022-10-31T03:15:22;13.60;99.90
52669;DHT22;59898;52.786;6.892;2022-10-31T03:19:02;13.50;99.90
52669;DHT22;59898;52.786;6.892;2022-10-31T03:22:26;13.50;99.90
52669;DHT22;59898;52.786;6.892;2022-10-31T03:25:49;13.50;99.90
52669;DHT22;59898;52.786;6.892;2022-10-31T03:29:13;13.50;99.90
52669;DHT22;59898;52.786;6.892;2022-10-31T03:32:47;13.50;99.90
52669;DHT22;59898;52.786;6.892;2022-10-31T03:36:10;13.50;99.90
52669;DHT22;59898;52.786;6.892;2022-10-31T03:39:33;13.50;99.90
52669;DHT22;59898;52.786;6.892;2022-10-31T03:42:58;13.20;99.90
52669;DHT22;59898;52.786;6.892;2022-10-31T03:46:21;13.50;99.90
52669;DHT22;59898;52.786;6.892;2022-10-31T03:49:42;13.40;99.90
52669;DHT22;59898;52.786;6.892;2022-10-31T03:53:31;13.40;99.90
52669;DHT22;59898;52.786;6.892;2022-10-31T03:56:56;13.40;99.90
52669;DHT22;59898;52.786;6.892;2022-10-31T04:00:18;13.30;99.90
52669;DHT22;59898;52.786;6.892;2022-10-31T04:03:40;13.30;99.90
52669;DHT22;59898;52.786;6.892;2022-10-31T04:07:01;13.20;99.90
52669;DHT22;59898;52.786;6.892;2022-10-31T04:10:24;13.10;99.90
52669;DHT22;59898;52.786;6.892;2022-10-31T04:13:47;13.10;99.90
52669;DHT22;59898;52.786;6.892;2022-10-31T04:17:12;13.00;99.90
52669;DHT22;59898;52.786;6.892;2022-10-31T04:20:39;12.90;99.90
52669;DHT22;59898;52.786;6.892;2022-10-31T04:24:00;12.90;99.90
52669;DHT22;59898;52.786;6.892;2022-10-31T04:27:21;12.90;99.90
52669;DHT22;59898;52.786;6.892;2022-10-31T04:30:41;12.90;99.90
52669;DHT22;59898;52.786;6.892;2022-10-31T04:34:02;12.90;99.90
52669;DHT22;59898;52.786;6.892;2022-10-31T04:37:23;12.80;99.90
52669;DHT22;59898;52.786;6.892;2022-10-31T04:40:45;12.70;99.90
52669;DHT22;59898;52.786;6.892;2022-10-31T04:44:05;12.70;99.90
52669;DHT22;59898;52.786;6.892;2022-10-31T04:47:26;12.60;99.90
52669;DHT22;59898;52.786;6.892;2022-10-31T04:50:47;12.70;99.90
52669;DHT22;59898;52.786;6.892;2022-10-31T04:54:07;12.50;99.90
52669;DHT22;59898;52.786;6.892;2022-10-31T04:57:28;12.50;99.90
52669;DHT22;59898;52.786;6.892;2022-10-31T05:00:54;12.50;99.90
52669;DHT22;59898;52.786;6.892;2022-10-31T05:04:15;12.40;99.90
52669;DHT22;59898;52.786;6.892;2022-10-31T05:07:43;12.40;99.90
52669;DHT22;59898;52.786;6.892;2022-10-31T05:11:04;12.40;99.90
52669;DHT22;59898;52.786;6.892;2022-10-31T05:14:25;12.30;99.90
52669;DHT22;59898;52.786;6.892;2022-10-31T05:17:46;12.30;99.90
52669;DHT22;59898;52.786;6.892;2022-10-31T05:21:06;12.20;99.90
52669;DHT22;59898;52.786;6.892;2022-10-31T05:24:27;12.20;99.90
52669;DHT22;59898;52.786;6.892;2022-10-31T05:27:49;12.20;99.90
52669;DHT22;59898;52.786;6.892;2022-10-31T05:31:10;12.10;99.90
52669;DHT22;59898;52.786;6.892;2022-10-31T05:34:31;12.10;99.90
52669;DHT22;59898;52.786;6.892;2022-10-31T05:37:52;12.10;99.90
52669;DHT22;59898;52.786;6.892;2022-10-31T05:41:12;12.10;99.90
52669;DHT22;59898;52.786;6.892;2022-10-31T05:44:33;12.00;99.90
52669;DHT22;59898;52.786;6.892;2022-10-31T05:48:03;12.00;99.90
52669;DHT22;59898;52.786;6.892;2022-10-31T05:51:24;11.90;99.90
52669;DHT22;59898;52.786;6.892;2022-10-31T05:54:44;11.90;99.90
52669;DHT22;59898;52.786;6.892;2022-10-31T05:58:05;11.80;99.90
52669;DHT22;59898;52.786;6.892;2022-10-31T06:01:26;11.80;99.90
52669;DHT22;59898;52.786;6.892;2022-10-31T06:04:46;11.80;99.90
52669;DHT22;59898;52.786;6.892;2022-10-31T06:08:07;11.80;99.90
52669;DHT22;59898;52.786;6.892;2022-10-31T06:11:28;11.80;99.90
52669;DHT22;59898;52.786;6.892;2022-10-31T06:14:48;11.80;99.90
52669;DHT22;59898;52.786;6.892;2022-10-31T06:18:09;11.80;99.90
52669;DHT22;59898;52.786;6.892;2022-10-31T06:21:30;11.80;99.90
52669;DHT22;59898;52.786;6.892;2022-10-31T06:24:50;11.70;99.90
52669;DHT22;59898;52.786;6.892;2022-10-31T06:28:11;11.60;99.90
52669;DHT22;59898;52.786;6.892;2022-10-31T06:31:32;11.50;99.90
52669;DHT22;59898;52.786;6.892;2022-10-31T06:34:52;11.60;99.90
52669;DHT22;59898;52.786;6.892;2022-10-31T06:38:14;11.60;99.90
52669;DHT22;59898;52.786;6.892;2022-10-31T06:41:34;11.60;99.90
52669;DHT22;59898;52.786;6.892;2022-10-31T06:44:56;11.60;99.90
52669;DHT22;59898;52.786;6.892;2022-10-31T06:48:17;11.70;99.90
52669;DHT22;59898;52.786;6.892;2022-10-31T06:51:38;11.70;99.90
52669;DHT22;59898;52.786;6.892;2022-10-31T06:54:58;11.70;99.90
52669;DHT22;59898;52.786;6.892;2022-10-31T06:58:19;11.70;99.90
52669;DHT22;59898;52.786;6.892;2022-10-31T07:01:40;11.70;99.90
52669;DHT22;59898;52.786;6.892;2022-10-31T07:05:00;11.70;99.90
52669;DHT22;59898;52.786;6.892;2022-10-31T07:08:21;11.80;99.90
52669;DHT22;59898;52.786;6.892;2022-10-31T07:11:42;11.80;99.90
52669;DHT22;59898;52.786;6.892;2022-10-31T07:15:03;11.80;99.90
52669;DHT22;59898;52.786;6.892;2022-10-31T07:18:24;11.80;99.90
52669;DHT22;59898;52.786;6.892;2022-10-31T07:21:44;11.90;99.90
52669;DHT22;59898;52.786;6.892;2022-10-31T07:25:05;11.90;99.90
52669;DHT22;59898;52.786;6.892;2022-10-31T07:28:27;11.90;99.90
52669;DHT22;59898;52.786;6.892;2022-10-31T07:31:47;11.90;99.90
52669;DHT22;59898;52.786;6.892;2022-10-31T07:35:17;11.90;99.90
52669;DHT22;59898;52.786;6.892;2022-10-31T07:38:38;11.90;99.90
52669;DHT22;59898;52.786;6.892;2022-10-31T07:41:59;11.90;99.90
52669;DHT22;59898;52.786;6.892;2022-10-31T07:45:21;11.80;99.90
52669;DHT22;59898;52.786;6.892;2022-10-31T07:48:42;11.80;99.90
52669;DHT22;59898;52.786;6.892;2022-10-31T07:52:08;11.80;99.90
52669;DHT22;59898;52.786;6.892;2022-10-31T07:55:29;11.80;99.90
52669;DHT22;59898;52.786;6.892;2022-10-31T07:58:50;11.80;99.90
52669;DHT22;59898;52.786;6.892;2022-10-31T08:02:11;11.70;99.90
52669;DHT22;59898;52.786;6.892;2022-10-31T08:05:32;11.70;99.90
52669;DHT22;59898;52.786;6.892;2022-10-31T08:08:53;11.80;99.90
52669;DHT22;59898;52.786;6.892;2022-10-31T08:12:14;11.90;99.90
52669;DHT22;59898;52.786;6.892;2022-10-31T08:15:35;12.10;99.90
52669;DHT22;59898;52.786;6.892;2022-10-31T08:18:58;12.50;99.90
52669;DHT22;59898;52.786;6.892;2022-10-31T08:22:19;12.90;99.90
52669;DHT22;59898;52.786;6.892;2022-10-31T08:25:40;13.30;99.90
52669;DHT22;59898;52.786;6.892;2022-10-31T08:29:02;13.60;99.90
52669;DHT22;59898;52.786;6.892;2022-10-31T08:32:23;13.70;99.90
52669;DHT22;59898;52.786;6.892;2022-10-31T08:35:44;13.70;99.90
52669;DHT22;59898;52.786;6.892;2022-10-31T08:39:05;13.70;99.90
52669;DHT22;59898;52.786;6.892;2022-10-31T08:42:25;13.80;99.90
52669;DHT22;59898;52.786;6.892;2022-10-31T08:45:48;13.90;99.90
52669;DHT22;59898;52.786;6.892;2022-10-31T08:49:09;14.00;99.90
52669;DHT22;59898;52.786;6.892;2022-10-31T08:52:30;14.20;99.90
52669;DHT22;59898;52.786;6.892;2022-10-31T08:55:50;14.30;99.90
52669;DHT22;59898;52.786;6.892;2022-10-31T08:59:11;14.50;99.90
52669;DHT22;59898;52.786;6.892;2022-10-31T09:02:32;14.70;99.90
52669;DHT22;59898;52.786;6.892;2022-10-31T09:06:01;14.90;99.90
52669;DHT22;59898;52.786;6.892;2022-10-31T09:09:23;15.00;99.90
52669;DHT22;59898;52.786;6.892;2022-10-31T09:12:43;15.00;99.90
52669;DHT22;59898;52.786;6.892;2022-10-31T09:16:04;15.00;99.90
52669;DHT22;59898;52.786;6.892;2022-10-31T09:19:25;15.10;99.90
52669;DHT22;59898;52.786;6.892;2022-10-31T09:22:46;15.30;99.90
52669;DHT22;59898;52.786;6.892;2022-10-31T09:26:07;15.40;99.90
52669;DHT22;59898;52.786;6.892;2022-10-31T09:29:27;15.40;99.90
52669;DHT22;59898;52.786;6.892;2022-10-31T09:32:48;15.20;99.90
52669;DHT22;59898;52.786;6.892;2022-10-31T09:36:08;15.10;99.90
52669;DHT22;59898;52.786;6.892;2022-10-31T09:39:29;15.10;99.90
52669;DHT22;59898;52.786;6.892;2022-10-31T09:50:28;15.10;99.90
52669;DHT22;59898;52.786;6.892;2022-10-31T09:54:14;15.00;99.90
52669;DHT22;59898;52.786;6.892;2022-10-31T09:57:37;15.00;99.90
52669;DHT22;59898;52.786;6.892;2022-10-31T10:01:00;15.10;99.90
52669;DHT22;59898;52.786;6.892;2022-10-31T10:04:42;15.20;99.90
52669;DHT22;59898;52.786;6.892;2022-10-31T10:08:09;15.30;99.90
52669;DHT22;59898;52.786;6.892;2022-10-31T10:11:43;15.30;99.90
52669;DHT22;59898;52.786;6.892;2022-10-31T10:15:30;15.40;99.90
52669;DHT22;59898;52.786;6.892;2022-10-31T10:22:52;15.40;99.90
52669;DHT22;59898;52.786;6.892;2022-10-31T10:26:22;15.50;99.90
52669;DHT22;59898;52.786;6.892;2022-10-31T10:29:57;15.50;99.90
52669;DHT22;59898;52.786;6.892;2022-10-31T10:33:22;15.50;99.90
52669;DHT22;59898;52.786;6.892;2022-10-31T10:36:51;15.50;99.90
52669;DHT22;59898;52.786;6.892;2022-10-31T10:40:27;15.60;99.90
52669;DHT22;59898;52.786;6.892;2022-10-31T10:43:52;15.60;99.90
52669;DHT22;59898;52.786;6.892;2022-10-31T10:47:14;15.60;99.90
52669;DHT22;59898;52.786;6.892;2022-10-31T10:50:53;15.60;99.90
52669;DHT22;59898;52.786;6.892;2022-10-31T10:58:03;15.60;99.90
52669;DHT22;59898;52.786;6.892;2022-10-31T11:01:24;15.60;99.90
52669;DHT22;59898;52.786;6.892;2022-10-31T11:04:55;15.60;99.90
52669;DHT22;59898;52.786;6.892;2022-10-31T11:08:28;15.60;99.90
52669;DHT22;59898;52.786;6.892;2022-10-31T11:11:49;15.60;99.90
52669;DHT22;59898;52.786;6.892;2022-10-31T11:15:24;15.60;99.90
52669;DHT22;59898;52.786;6.892;2022-10-31T11:18:47;15.60;99.90
52669;DHT22;59898;52.786;6.892;2022-10-31T11:22:14;15.60;99.90
52669;DHT22;59898;52.786;6.892;2022-10-31T11:25:36;15.60;99.90
52669;DHT22;59898;52.786;6.892;2022-10-31T11:28:58;15.60;99.90
52669;DHT22;59898;52.786;6.892;2022-10-31T11:32:24;15.60;99.90
52669;DHT22;59898;52.786;6.892;2022-10-31T11:35:47;15.60;99.90
52669;DHT22;59898;52.786;6.892;2022-10-31T11:39:20;15.50;99.90
52669;DHT22;59898;52.786;6.892;2022-10-31T11:42:41;15.60;99.90
52669;DHT22;59898;52.786;6.892;2022-10-31T11:46:22;15.50;99.90
52669;DHT22;59898;52.786;6.892;2022-10-31T11:49:45;15.60;99.90
52669;DHT22;59898;52.786;6.892;2022-10-31T11:53:26;15.60;99.90
52669;DHT22;59898;52.786;6.892;2022-10-31T11:56:47;15.70;99.90
52669;DHT22;59898;52.786;6.892;2022-10-31T12:00:27;15.70;99.90
52669;DHT22;59898;52.786;6.892;2022-10-31T12:04:07;15.70;99.90
52669;DHT22;59898;52.786;6.892;2022-10-31T12:07:28;15.70;99.90
52669;DHT22;59898;52.786;6.892;2022-10-31T12:14:57;15.70;99.90
52669;DHT22;59898;52.786;6.892;2022-10-31T12:43:56;16.00;99.90
52669;DHT22;59898;52.786;6.892;2022-10-31T12:54:55;16.40;99.90
52669;DHT22;59898;52.786;6.892;2022-10-31T12:58:22;16.50;99.90
52669;DHT22;59898;52.786;6.892;2022-10-31T13:02:09;16.60;99.90
52669;DHT22;59898;52.786;6.892;2022-10-31T13:05:34;16.60;99.90
52669;DHT22;59898;52.786;6.892;2022-10-31T13:09:00;16.70;99.90
52669;DHT22;59898;52.786;6.892;2022-10-31T13:12:22;17.20;99.90
52669;DHT22;59898;52.786;6.892;2022-10-31T13:16:15;17.00;99.90
52669;DHT22;59898;52.786;6.892;2022-10-31T13:19:43;17.00;99.90
52669;DHT22;59898;52.786;6.892;2022-10-31T13:23:17;17.00;99.90
52669;DHT22;59898;52.786;6.892;2022-10-31T13:26:50;17.00;99.90
52669;DHT22;59898;52.786;6.892;2022-10-31T13:30:17;16.90;99.90
52669;DHT22;59898;52.786;6.892;2022-10-31T13:33:54;16.90;99.90
52669;DHT22;59898;52.786;6.892;2022-10-31T13:40:59;16.80;99.90
52669;DHT22;59898;52.786;6.892;2022-10-31T13:44:23;16.80;99.90
52669;DHT22;59898;52.786;6.892;2022-10-31T13:47:56;16.80;99.90
52669;DHT22;59898;52.786;6.892;2022-10-31T13:51:28;16.70;99.90
52669;DHT22;59898;52.786;6.892;2022-10-31T13:54:51;16.70;99.90
52669;DHT22;59898;52.786;6.892;2022-10-31T13:58:26;16.60;99.90
52669;DHT22;59898;52.786;6.892;2022-10-31T14:01:51;16.60;99.90
52669;DHT22;59898;52.786;6.892;2022-10-31T14:05:31;16.50;99.90
52669;DHT22;59898;52.786;6.892;2022-10-31T14:08:53;16.50;99.90
52669;DHT22;59898;52.786;6.892;2022-10-31T14:12:37;16.40;99.90
52669;DHT22;59898;52.786;6.892;2022-10-31T14:16:26;16.40;99.90
52669;DHT22;59898;52.786;6.892;2022-10-31T14:23:39;16.40;99.90
52669;DHT22;59898;52.786;6.892;2022-10-31T14:30:51;16.20;99.90
52669;DHT22;59898;52.786;6.892;2022-10-31T14:38:15;16.10;99.90
52669;DHT22;59898;52.786;6.892;2022-10-31T14:53:19;16.00;99.90
52669;DHT22;59898;52.786;6.892;2022-10-31T14:56:48;15.90;99.90
52669;DHT22;59898;52.786;6.892;2022-10-31T15:00:16;16.00;99.90
52669;DHT22;59898;52.786;6.892;2022-10-31T15:03:42;15.90;99.90
52669;DHT22;59898;52.786;6.892;2022-10-31T15:07:16;15.90;99.90
52669;DHT22;59898;52.786;6.892;2022-10-31T15:10:37;15.80;99.90
52669;DHT22;59898;52.786;6.892;2022-10-31T15:13:59;15.80;99.90
52669;DHT22;59898;52.786;6.892;2022-10-31T15:17:23;15.70;99.90
52669;DHT22;59898;52.786;6.892;2022-10-31T15:20:45;15.70;99.90
52669;DHT22;59898;52.786;6.892;2022-10-31T15:24:12;15.60;99.90
52669;DHT22;59898;52.786;6.892;2022-10-31T15:27:34;15.60;99.90
52669;DHT22;59898;52.786;6.892;2022-10-31T15:31:00;15.60;99.90
52669;DHT22;59898;52.786;6.892;2022-10-31T15:37:55;15.50;99.90
52669;DHT22;59898;52.786;6.892;2022-10-31T15:44:53;15.40;99.90
52669;DHT22;59898;52.786;6.892;2022-10-31T15:48:21;15.40;99.90
52669;DHT22;59898;52.786;6.892;2022-10-31T15:51:42;15.40;99.90
52669;DHT22;59898;52.786;6.892;2022-10-31T15:58:42;15.30;99.90
52669;DHT22;59898;52.786;6.892;2022-10-31T16:02:09;15.30;99.90
52669;DHT22;59898;52.786;6.892;2022-10-31T16:05:58;15.30;99.90
52669;DHT22;59898;52.786;6.892;2022-10-31T16:09:22;15.30;99.90
52669;DHT22;59898;52.786;6.892;2022-10-31T16:12:45;15.20;99.90
52669;DHT22;59898;52.786;6.892;2022-10-31T16:16:14;15.20;99.90
52669;DHT22;59898;52.786;6.892;2022-10-31T16:19:42;15.10;99.90
52669;DHT22;59898;52.786;6.892;2022-10-31T16:23:18;15.10;99.90
52669;DHT22;59898;52.786;6.892;2022-10-31T16:26:39;15.10;99.90
52669;DHT22;59898;52.786;6.892;2022-10-31T16:30:02;15.00;99.90
52669;DHT22;59898;52.786;6.892;2022-10-31T16:33:33;14.90;99.90
52669;DHT22;59898;52.786;6.892;2022-10-31T16:36:56;14.60;99.90
52669;DHT22;59898;52.786;6.892;2022-10-31T16:40:17;14.90;99.90
52669;DHT22;59898;52.786;6.892;2022-10-31T16:43:38;14.90;99.90
52669;DHT22;59898;52.786;6.892;2022-10-31T16:47:09;14.90;99.90
52669;DHT22;59898;52.786;6.892;2022-10-31T16:50:30;14.90;99.90
52669;DHT22;59898;52.786;6.892;2022-10-31T16:53:52;14.90;99.90
52669;DHT22;59898;52.786;6.892;2022-10-31T16:57:17;14.90;99.90
52669;DHT22;59898;52.786;6.892;2022-10-31T17:00:38;14.90;99.90
52669;DHT22;59898;52.786;6.892;2022-10-31T17:03:59;14.90;99.90
52669;DHT22;59898;52.786;6.892;2022-10-31T17:07:19;14.80;99.90
52669;DHT22;59898;52.786;6.892;2022-10-31T17:10:41;14.90;99.90
52669;DHT22;59898;52.786;6.892;2022-10-31T17:14:03;14.90;99.90
52669;DHT22;59898;52.786;6.892;2022-10-31T17:17:24;14.80;99.90
52669;DHT22;59898;52.786;6.892;2022-10-31T17:20:45;14.80;99.90
52669;DHT22;59898;52.786;6.892;2022-10-31T17:24:11;14.90;99.90
52669;DHT22;59898;52.786;6.892;2022-10-31T17:27:32;14.90;99.90
52669;DHT22;59898;52.786;6.892;2022-10-31T17:30:56;14.80;99.90
52669;DHT22;59898;52.786;6.892;2022-10-31T17:34:18;14.80;99.90
52669;DHT22;59898;52.786;6.892;2022-10-31T17:37:39;14.80;99.90
52669;DHT22;59898;52.786;6.892;2022-10-31T17:41:04;14.80;99.90
52669;DHT22;59898;52.786;6.892;2022-10-31T17:44:25;14.80;99.90
52669;DHT22;59898;52.786;6.892;2022-10-31T17:47:50;14.80;99.90
52669;DHT22;59898;52.786;6.892;2022-10-31T17:51:11;14.80;99.90
52669;DHT22;59898;52.786;6.892;2022-10-31T17:54:32;14.80;99.90
52669;DHT22;59898;52.786;6.892;2022-10-31T17:57:53;14.80;99.90
52669;DHT22;59898;52.786;6.892;2022-10-31T18:01:15;14.80;99.90
52669;DHT22;59898;52.786;6.892;2022-10-31T18:04:37;14.80;99.90
52669;DHT22;59898;52.786;6.892;2022-10-31T18:08:00;14.80;99.90
52669;DHT22;59898;52.786;6.892;2022-10-31T18:11:20;14.80;99.90
52669;DHT22;59898;52.786;6.892;2022-10-31T18:14:41;14.80;99.90
52669;DHT22;59898;52.786;6.892;2022-10-31T18:18:02;14.70;99.90
52669;DHT22;59898;52.786;6.892;2022-10-31T18:21:24;14.70;99.90
52669;DHT22;59898;52.786;6.892;2022-10-31T18:24:45;14.80;99.90
52669;DHT22;59898;52.786;6.892;2022-10-31T18:28:06;14.90;99.90
52669;DHT22;59898;52.786;6.892;2022-10-31T18:31:27;14.90;99.90
52669;DHT22;59898;52.786;6.892;2022-10-31T18:34:47;14.90;99.90
52669;DHT22;59898;52.786;6.892;2022-10-31T18:38:08;14.90;99.90
52669;DHT22;59898;52.786;6.892;2022-10-31T18:41:29;15.00;99.90
52669;DHT22;59898;52.786;6.892;2022-10-31T18:44:49;15.00;99.90
52669;DHT22;59898;52.786;6.892;2022-10-31T18:48:12;15.10;99.90
52669;DHT22;59898;52.786;6.892;2022-10-31T18:51:33;15.00;99.90
52669;DHT22;59898;52.786;6.892;2022-10-31T18:54:54;15.00;99.90
52669;DHT22;59898;52.786;6.892;2022-10-31T18:58:15;15.00;99.90
52669;DHT22;59898;52.786;6.892;2022-10-31T19:01:36;15.00;99.90
52669;DHT22;59898;52.786;6.892;2022-10-31T19:04:56;14.90;99.90
52669;DHT22;59898;52.786;6.892;2022-10-31T19:08:17;15.00;99.90
52669;DHT22;59898;52.786;6.892;2022-10-31T19:11:38;15.00;99.90
52669;DHT22;59898;52.786;6.892;2022-10-31T19:14:59;15.00;99.90
52669;DHT22;59898;52.786;6.892;2022-10-31T19:18:19;15.00;99.90
52669;DHT22;59898;52.786;6.892;2022-10-31T19:21:40;15.00;99.90
52669;DHT22;59898;52.786;6.892;2022-10-31T19:25:01;15.00;99.90
52669;DHT22;59898;52.786;6.892;2022-10-31T19:28:21;15.00;99.90
52669;DHT22;59898;52.786;6.892;2022-10-31T19:31:42;14.90;99.90
52669;DHT22;59898;52.786;6.892;2022-10-31T19:35:03;14.90;99.90
52669;DHT22;59898;52.786;6.892;2022-10-31T19:38:28;14.90;99.90
52669;DHT22;59898;52.786;6.892;2022-10-31T19:41:49;14.90;99.90
52669;DHT22;59898;52.786;6.892;2022-10-31T19:45:10;14.80;99.90
52669;DHT22;59898;52.786;6.892;2022-10-31T19:48:31;14.90;99.90
52669;DHT22;59898;52.786;6.892;2022-10-31T19:51:51;14.90;99.90
52669;DHT22;59898;52.786;6.892;2022-10-31T19:55:12;14.90;99.90
52669;DHT22;59898;52.786;6.892;2022-10-31T19:58:33;14.90;99.90
52669;DHT22;59898;52.786;6.892;2022-10-31T20:01:53;14.90;99.90
52669;DHT22;59898;52.786;6.892;2022-10-31T20:05:14;14.90;99.90
52669;DHT22;59898;52.786;6.892;2022-10-31T20:08:35;14.70;99.90
52669;DHT22;59898;52.786;6.892;2022-10-31T20:11:56;14.90;99.90
52669;DHT22;59898;52.786;6.892;2022-10-31T20:15:16;14.80;99.90
52669;DHT22;59898;52.786;6.892;2022-10-31T20:18:38;14.80;99.90
52669;DHT22;59898;52.786;6.892;2022-10-31T20:21:59;14.80;99.90
52669;DHT22;59898;52.786;6.892;2022-10-31T20:25:19;14.80;99.90
52669;DHT22;59898;52.786;6.892;2022-10-31T20:28:40;14.80;99.90
52669;DHT22;59898;52.786;6.892;2022-10-31T20:32:01;14.70;99.90
52669;DHT22;59898;52.786;6.892;2022-10-31T20:35:22;14.70;99.90
52669;DHT22;59898;52.786;6.892;2022-10-31T20:38:42;14.70;99.90
52669;DHT22;59898;52.786;6.892;2022-10-31T20:42:04;14.60;99.90
52669;DHT22;59898;52.786;6.892;2022-10-31T20:45:25;14.60;99.90
52669;DHT22;59898;52.786;6.892;2022-10-31T20:48:45;14.60;99.90
52669;DHT22;59898;52.786;6.892;2022-10-31T20:52:06;14.60;99.90
52669;DHT22;59898;52.786;6.892;2022-10-31T20:55:27;14.70;99.90
52669;DHT22;59898;52.786;6.892;2022-10-31T20:58:48;14.70;99.90
52669;DHT22;59898;52.786;6.892;2022-10-31T21:02:09;14.80;99.90
52669;DHT22;59898;52.786;6.892;2022-10-31T21:05:29;14.70;99.90
52669;DHT22;59898;52.786;6.892;2022-10-31T21:08:51;14.80;99.90
52669;DHT22;59898;52.786;6.892;2022-10-31T21:12:13;14.80;99.90
52669;DHT22;59898;52.786;6.892;2022-10-31T21:15:33;14.80;99.90
52669;DHT22;59898;52.786;6.892;2022-10-31T21:18:54;14.90;99.90
52669;DHT22;59898;52.786;6.892;2022-10-31T21:22:15;14.90;99.90
52669;DHT22;59898;52.786;6.892;2022-10-31T21:25:40;14.90;99.90
52669;DHT22;59898;52.786;6.892;2022-10-31T21:29:02;14.90;99.90
52669;DHT22;59898;52.786;6.892;2022-10-31T21:32:23;14.90;99.90
52669;DHT22;59898;52.786;6.892;2022-10-31T21:35:50;14.80;99.90
52669;DHT22;59898;52.786;6.892;2022-10-31T21:39:11;14.80;99.90
52669;DHT22;59898;52.786;6.892;2022-10-31T21:42:32;14.80;99.90
52669;DHT22;59898;52.786;6.892;2022-10-31T21:45:52;14.80;99.90
52669;DHT22;59898;52.786;6.892;2022-10-31T21:49:13;14.80;99.90
52669;DHT22;59898;52.786;6.892;2022-10-31T21:52:34;14.80;99.90
52669;DHT22;59898;52.786;6.892;2022-10-31T21:55:55;14.80;99.90
52669;DHT22;59898;52.786;6.892;2022-10-31T21:59:15;14.80;99.90
52669;DHT22;59898;52.786;6.892;2022-10-31T22:02:36;14.80;99.90
52669;DHT22;59898;52.786;6.892;2022-10-31T22:06:01;14.80;99.90
52669;DHT22;59898;52.786;6.892;2022-10-31T22:09:22;14.90;99.90
52669;DHT22;59898;52.786;6.892;2022-10-31T22:12:43;14.80;99.90
52669;DHT22;59898;52.786;6.892;2022-10-31T22:16:07;14.80;99.90
52669;DHT22;59898;52.786;6.892;2022-10-31T22:19:28;14.80;99.90
52669;DHT22;59898;52.786;6.892;2022-10-31T22:22:49;14.80;99.90
52669;DHT22;59898;52.786;6.892;2022-10-31T22:26:14;14.80;99.90
52669;DHT22;59898;52.786;6.892;2022-10-31T22:29:35;14.70;99.90
52669;DHT22;59898;52.786;6.892;2022-10-31T22:32:56;14.70;99.90
52669;DHT22;59898;52.786;6.892;2022-10-31T22:36:19;14.70;99.90
52669;DHT22;59898;52.786;6.892;2022-10-31T22:39:40;14.70;99.90
52669;DHT22;59898;52.786;6.892;2022-10-31T22:43:01;14.70;99.90
52669;DHT22;59898;52.786;6.892;2022-10-31T22:46:26;14.70;99.90
52669;DHT22;59898;52.786;6.892;2022-10-31T22:49:47;14.70;99.90
52669;DHT22;59898;52.786;6.892;2022-10-31T22:53:08;14.60;99.90
52669;DHT22;59898;52.786;6.892;2022-10-31T22:56:32;14.70;99.90
52669;DHT22;59898;52.786;6.892;2022-10-31T22:59:53;14.70;99.90
52669;DHT22;59898;52.786;6.892;2022-10-31T23:03:14;14.40;99.90
52669;DHT22;59898;52.786;6.892;2022-10-31T23:06:36;14.60;99.90
52669;DHT22;59898;52.786;6.892;2022-10-31T23:09:56;14.60;99.90
52669;DHT22;59898;52.786;6.892;2022-10-31T23:13:18;14.60;99.90
52669;DHT22;59898;52.786;6.892;2022-10-31T23:16:57;14.70;99.90